aviador You're here:

K2C8 Decoded Metar

in
Report Time2018-05-28 04:55:00
UTC Time2018-05-28 05:01:23
Flight Rules unknown UNKNOWN
Wind290° at 04 kt
W.Rank290° ranks 11
Current wind is below 290° avg. (9.1)
VisibilityN/A
Phenomena:N/A
Clouds:N/A
Expected CloudBase > 400 ft AGL from Temp-Dew spread
CeilingNone
Temp19°C
Dew Point18°C (94% RH)
QNH1013 hPa
Raw Report
METAR K2C8 280455Z AUTO 29004KT 19/18 A2990 RMK AO2 TSNO=

Extra information for K2C8:More info

Social comments